sensor_id;sensor_type;location;lat;lon;timestamp;P1;durP1;ratioP1;P2;durP2;ratioP2
75718;SDS011;64340;48.534;-3.036;2024-03-02T00:01:34;1.98;;;0.52;;
75718;SDS011;64340;48.534;-3.036;2024-03-02T00:04:02;3.35;;;0.98;;
75718;SDS011;64340;48.534;-3.036;2024-03-02T00:06:29;1.45;;;0.60;;
75718;SDS011;64340;48.534;-3.036;2024-03-02T00:08:56;1.20;;;0.40;;
75718;SDS011;64340;48.534;-3.036;2024-03-02T00:11:24;0.70;;;0.40;;
75718;SDS011;64340;48.534;-3.036;2024-03-02T00:13:52;4.00;;;0.70;;
75718;SDS011;64340;48.534;-3.036;2024-03-02T00:18:45;3.13;;;0.60;;
75718;SDS011;64340;48.534;-3.036;2024-03-02T00:21:11;2.45;;;0.55;;
75718;SDS011;64340;48.534;-3.036;2024-03-02T00:23:39;2.45;;;0.60;;
75718;SDS011;64340;48.534;-3.036;2024-03-02T00:26:06;2.85;;;1.05;;
75718;SDS011;64340;48.534;-3.036;2024-03-02T00:28:36;3.88;;;0.85;;
75718;SDS011;64340;48.534;-3.036;2024-03-02T00:31:07;1.25;;;0.50;;
75718;SDS011;64340;48.534;-3.036;2024-03-02T00:33:38;1.88;;;0.60;;
75718;SDS011;64340;48.534;-3.036;2024-03-02T00:36:07;1.83;;;0.40;;
75718;SDS011;64340;48.534;-3.036;2024-03-02T00:38:34;2.17;;;0.85;;
75718;SDS011;64340;48.534;-3.036;2024-03-02T00:41:06;2.00;;;0.57;;
75718;SDS011;64340;48.534;-3.036;2024-03-02T00:43:41;2.05;;;0.50;;
75718;SDS011;64340;48.534;-3.036;2024-03-02T00:46:11;1.23;;;0.50;;
75718;SDS011;64340;48.534;-3.036;2024-03-02T00:48:42;2.25;;;0.50;;
75718;SDS011;64340;48.534;-3.036;2024-03-02T00:51:25;1.95;;;0.50;;
75718;SDS011;64340;48.534;-3.036;2024-03-02T00:53:57;1.75;;;0.40;;
75718;SDS011;64340;48.534;-3.036;2024-03-02T00:56:25;1.38;;;0.52;;
75718;SDS011;64340;48.534;-3.036;2024-03-02T00:58:51;1.98;;;0.50;;
75718;SDS011;64340;48.534;-3.036;2024-03-02T01:01:18;1.60;;;0.43;;
75718;SDS011;64340;48.534;-3.036;2024-03-02T01:03:47;1.45;;;0.47;;
75718;SDS011;64340;48.534;-3.036;2024-03-02T01:06:14;2.67;;;0.30;;
75718;SDS011;64340;48.534;-3.036;2024-03-02T01:08:40;2.58;;;0.65;;
75718;SDS011;64340;48.534;-3.036;2024-03-02T01:11:06;3.03;;;0.55;;
75718;SDS011;64340;48.534;-3.036;2024-03-02T01:13:32;1.58;;;0.60;;
75718;SDS011;64340;48.534;-3.036;2024-03-02T01:15:57;2.00;;;0.60;;
75718;SDS011;64340;48.534;-3.036;2024-03-02T01:18:24;2.85;;;0.55;;
75718;SDS011;64340;48.534;-3.036;2024-03-02T01:20:49;1.40;;;0.40;;
75718;SDS011;64340;48.534;-3.036;2024-03-02T01:23:17;1.83;;;0.40;;
75718;SDS011;64340;48.534;-3.036;2024-03-02T01:25:44;2.05;;;0.50;;
75718;SDS011;64340;48.534;-3.036;2024-03-02T01:28:11;1.00;;;0.30;;
75718;SDS011;64340;48.534;-3.036;2024-03-02T01:30:37;1.17;;;0.45;;
75718;SDS011;64340;48.534;-3.036;2024-03-02T01:33:03;1.58;;;0.30;;
75718;SDS011;64340;48.534;-3.036;2024-03-02T01:35:30;1.95;;;0.40;;
75718;SDS011;64340;48.534;-3.036;2024-03-02T01:37:56;2.20;;;0.50;;
75718;SDS011;64340;48.534;-3.036;2024-03-02T01:40:22;1.10;;;0.28;;
75718;SDS011;64340;48.534;-3.036;2024-03-02T01:42:51;1.13;;;0.40;;
75718;SDS011;64340;48.534;-3.036;2024-03-02T01:45:23;0.93;;;0.40;;
75718;SDS011;64340;48.534;-3.036;2024-03-02T01:47:49;2.38;;;0.50;;
75718;SDS011;64340;48.534;-3.036;2024-03-02T01:50:15;2.83;;;0.47;;
75718;SDS011;64340;48.534;-3.036;2024-03-02T01:52:50;1.58;;;0.40;;
75718;SDS011;64340;48.534;-3.036;2024-03-02T01:55:16;1.40;;;0.30;;
75718;SDS011;64340;48.534;-3.036;2024-03-02T01:57:42;0.95;;;0.30;;
75718;SDS011;64340;48.534;-3.036;2024-03-02T02:00:10;2.25;;;0.40;;
75718;SDS011;64340;48.534;-3.036;2024-03-02T02:02:36;1.20;;;0.38;;
75718;SDS011;64340;48.534;-3.036;2024-03-02T02:05:02;1.58;;;0.40;;
75718;SDS011;64340;48.534;-3.036;2024-03-02T02:07:28;0.80;;;0.30;;
75718;SDS011;64340;48.534;-3.036;2024-03-02T02:09:54;2.33;;;0.45;;
75718;SDS011;64340;48.534;-3.036;2024-03-02T02:12:20;1.13;;;0.40;;
75718;SDS011;64340;48.534;-3.036;2024-03-02T02:14:49;1.67;;;0.45;;
75718;SDS011;64340;48.534;-3.036;2024-03-02T02:17:17;0.65;;;0.20;;
75718;SDS011;64340;48.534;-3.036;2024-03-02T02:19:43;1.02;;;0.30;;
75718;SDS011;64340;48.534;-3.036;2024-03-02T02:22:10;1.63;;;0.38;;
75718;SDS011;64340;48.534;-3.036;2024-03-02T02:24:35;1.65;;;0.60;;
75718;SDS011;64340;48.534;-3.036;2024-03-02T02:27:04;0.73;;;0.20;;
75718;SDS011;64340;48.534;-3.036;2024-03-02T02:29:30;1.45;;;0.28;;
75718;SDS011;64340;48.534;-3.036;2024-03-02T02:31:56;2.10;;;0.50;;
75718;SDS011;64340;48.534;-3.036;2024-03-02T02:34:21;1.75;;;0.40;;
75718;SDS011;64340;48.534;-3.036;2024-03-02T02:36:47;1.00;;;0.17;;
75718;SDS011;64340;48.534;-3.036;2024-03-02T02:39:13;0.68;;;0.20;;
75718;SDS011;64340;48.534;-3.036;2024-03-02T02:41:42;1.27;;;0.30;;
75718;SDS011;64340;48.534;-3.036;2024-03-02T02:44:07;1.65;;;0.40;;
75718;SDS011;64340;48.534;-3.036;2024-03-02T02:46:33;2.97;;;0.30;;
75718;SDS011;64340;48.534;-3.036;2024-03-02T02:48:59;1.42;;;0.35;;
75718;SDS011;64340;48.534;-3.036;2024-03-02T02:51:25;1.48;;;0.40;;
75718;SDS011;64340;48.534;-3.036;2024-03-02T02:53:51;2.35;;;0.38;;
75718;SDS011;64340;48.534;-3.036;2024-03-02T02:56:17;1.50;;;0.20;;
75718;SDS011;64340;48.534;-3.036;2024-03-02T02:58:42;1.17;;;0.20;;
75718;SDS011;64340;48.534;-3.036;2024-03-02T03:01:08;1.52;;;0.40;;
75718;SDS011;64340;48.534;-3.036;2024-03-02T03:03:34;5.00;;;0.95;;
75718;SDS011;64340;48.534;-3.036;2024-03-02T03:06:00;1.17;;;0.30;;
75718;SDS011;64340;48.534;-3.036;2024-03-02T03:08:27;1.95;;;0.35;;
75718;SDS011;64340;48.534;-3.036;2024-03-02T03:10:53;2.35;;;0.40;;
75718;SDS011;64340;48.534;-3.036;2024-03-02T03:13:19;0.82;;;0.30;;
75718;SDS011;64340;48.534;-3.036;2024-03-02T03:15:45;0.85;;;0.20;;
75718;SDS011;64340;48.534;-3.036;2024-03-02T03:18:10;2.05;;;0.30;;
75718;SDS011;64340;48.534;-3.036;2024-03-02T03:20:36;1.15;;;0.30;;
75718;SDS011;64340;48.534;-3.036;2024-03-02T03:23:02;1.05;;;0.40;;
75718;SDS011;64340;48.534;-3.036;2024-03-02T03:25:29;1.75;;;0.40;;
75718;SDS011;64340;48.534;-3.036;2024-03-02T03:27:55;0.95;;;0.20;;
75718;SDS011;64340;48.534;-3.036;2024-03-02T03:30:21;1.08;;;0.30;;
75718;SDS011;64340;48.534;-3.036;2024-03-02T03:32:46;1.20;;;0.25;;
75718;SDS011;64340;48.534;-3.036;2024-03-02T03:35:15;1.17;;;0.20;;
75718;SDS011;64340;48.534;-3.036;2024-03-02T03:37:41;2.92;;;0.52;;
75718;SDS011;64340;48.534;-3.036;2024-03-02T03:40:07;0.93;;;0.30;;
75718;SDS011;64340;48.534;-3.036;2024-03-02T03:42:36;2.30;;;0.30;;
75718;SDS011;64340;48.534;-3.036;2024-03-02T03:45:03;1.55;;;0.45;;
75718;SDS011;64340;48.534;-3.036;2024-03-02T03:47:30;1.73;;;0.30;;
75718;SDS011;64340;48.534;-3.036;2024-03-02T03:49:56;4.90;;;0.70;;
75718;SDS011;64340;48.534;-3.036;2024-03-02T03:52:22;1.15;;;0.30;;
75718;SDS011;64340;48.534;-3.036;2024-03-02T03:54:48;2.15;;;0.47;;
75718;SDS011;64340;48.534;-3.036;2024-03-02T03:57:14;2.08;;;0.70;;
75718;SDS011;64340;48.534;-3.036;2024-03-02T03:59:40;0.80;;;0.30;;
75718;SDS011;64340;48.534;-3.036;2024-03-02T04:02:05;0.52;;;0.28;;
75718;SDS011;64340;48.534;-3.036;2024-03-02T04:04:32;1.88;;;0.35;;
75718;SDS011;64340;48.534;-3.036;2024-03-02T04:06:58;1.92;;;0.32;;
75718;SDS011;64340;48.534;-3.036;2024-03-02T04:09:24;1.23;;;0.38;;
75718;SDS011;64340;48.534;-3.036;2024-03-02T04:11:50;1.48;;;0.30;;
75718;SDS011;64340;48.534;-3.036;2024-03-02T04:14:16;1.55;;;0.20;;
75718;SDS011;64340;48.534;-3.036;2024-03-02T04:16:42;1.90;;;0.30;;
75718;SDS011;64340;48.534;-3.036;2024-03-02T04:19:08;1.05;;;0.25;;
75718;SDS011;64340;48.534;-3.036;2024-03-02T04:21:34;2.60;;;0.52;;
75718;SDS011;64340;48.534;-3.036;2024-03-02T04:23:59;3.05;;;0.60;;
75718;SDS011;64340;48.534;-3.036;2024-03-02T04:26:25;0.82;;;0.22;;
75718;SDS011;64340;48.534;-3.036;2024-03-02T04:28:51;1.90;;;0.40;;
75718;SDS011;64340;48.534;-3.036;2024-03-02T04:31:18;0.73;;;0.22;;
75718;SDS011;64340;48.534;-3.036;2024-03-02T04:33:44;2.70;;;0.60;;
75718;SDS011;64340;48.534;-3.036;2024-03-02T04:36:09;1.13;;;0.20;;
75718;SDS011;64340;48.534;-3.036;2024-03-02T04:38:35;0.95;;;0.30;;
75718;SDS011;64340;48.534;-3.036;2024-03-02T04:41:01;1.35;;;0.32;;
75718;SDS011;64340;48.534;-3.036;2024-03-02T04:43:27;2.38;;;0.40;;
75718;SDS011;64340;48.534;-3.036;2024-03-02T04:45:53;1.65;;;0.60;;
75718;SDS011;64340;48.534;-3.036;2024-03-02T04:48:19;0.65;;;0.20;;
75718;SDS011;64340;48.534;-3.036;2024-03-02T04:50:44;2.17;;;0.40;;
75718;SDS011;64340;48.534;-3.036;2024-03-02T04:53:10;1.02;;;0.35;;
75718;SDS011;64340;48.534;-3.036;2024-03-02T04:55:36;1.40;;;0.32;;
75718;SDS011;64340;48.534;-3.036;2024-03-02T04:58:04;1.23;;;0.30;;
75718;SDS011;64340;48.534;-3.036;2024-03-02T05:00:31;1.13;;;0.30;;
75718;SDS011;64340;48.534;-3.036;2024-03-02T05:02:57;2.63;;;0.47;;
75718;SDS011;64340;48.534;-3.036;2024-03-02T05:05:23;0.85;;;0.20;;
75718;SDS011;64340;48.534;-3.036;2024-03-02T05:07:48;1.25;;;0.22;;
75718;SDS011;64340;48.534;-3.036;2024-03-02T05:10:14;2.08;;;0.40;;
75718;SDS011;64340;48.534;-3.036;2024-03-02T05:12:40;1.45;;;0.20;;
75718;SDS011;64340;48.534;-3.036;2024-03-02T05:15:09;1.92;;;0.50;;
75718;SDS011;64340;48.534;-3.036;2024-03-02T05:17:36;1.58;;;0.28;;
75718;SDS011;64340;48.534;-3.036;2024-03-02T05:20:03;0.70;;;0.22;;
75718;SDS011;64340;48.534;-3.036;2024-03-02T05:22:29;1.88;;;0.30;;
75718;SDS011;64340;48.534;-3.036;2024-03-02T05:24:55;1.38;;;0.20;;
75718;SDS011;64340;48.534;-3.036;2024-03-02T05:27:21;0.75;;;0.22;;
75718;SDS011;64340;48.534;-3.036;2024-03-02T05:29:47;0.88;;;0.20;;
75718;SDS011;64340;48.534;-3.036;2024-03-02T05:32:13;1.13;;;0.25;;
75718;SDS011;64340;48.534;-3.036;2024-03-02T05:34:38;0.95;;;0.32;;
75718;SDS011;64340;48.534;-3.036;2024-03-02T05:37:04;1.45;;;0.30;;
75718;SDS011;64340;48.534;-3.036;2024-03-02T05:39:30;0.85;;;0.30;;
75718;SDS011;64340;48.534;-3.036;2024-03-02T05:41:56;2.00;;;0.35;;
75718;SDS011;64340;48.534;-3.036;2024-03-02T05:44:21;0.85;;;0.30;;
75718;SDS011;64340;48.534;-3.036;2024-03-02T05:46:47;0.55;;;0.25;;
75718;SDS011;64340;48.534;-3.036;2024-03-02T05:49:13;1.40;;;0.43;;
75718;SDS011;64340;48.534;-3.036;2024-03-02T05:51:39;1.30;;;0.85;;
75718;SDS011;64340;48.534;-3.036;2024-03-02T05:54:04;1.65;;;0.30;;
75718;SDS011;64340;48.534;-3.036;2024-03-02T05:56:30;1.38;;;0.50;;
75718;SDS011;64340;48.534;-3.036;2024-03-02T05:58:56;0.73;;;0.35;;
75718;SDS011;64340;48.534;-3.036;2024-03-02T06:01:44;0.65;;;0.20;;
75718;SDS011;64340;48.534;-3.036;2024-03-02T06:04:11;2.05;;;0.20;;
75718;SDS011;64340;48.534;-3.036;2024-03-02T06:06:38;0.88;;;0.30;;
75718;SDS011;64340;48.534;-3.036;2024-03-02T06:09:04;0.95;;;0.38;;
75718;SDS011;64340;48.534;-3.036;2024-03-02T06:11:33;1.75;;;0.30;;
75718;SDS011;64340;48.534;-3.036;2024-03-02T06:13:59;1.15;;;0.20;;
75718;SDS011;64340;48.534;-3.036;2024-03-02T06:16:25;0.70;;;0.25;;
75718;SDS011;64340;48.534;-3.036;2024-03-02T06:18:50;1.40;;;0.60;;
75718;SDS011;64340;48.534;-3.036;2024-03-02T06:21:16;0.75;;;0.35;;
75718;SDS011;64340;48.534;-3.036;2024-03-02T06:23:43;0.98;;;0.30;;
75718;SDS011;64340;48.534;-3.036;2024-03-02T06:26:09;1.05;;;0.30;;
75718;SDS011;64340;48.534;-3.036;2024-03-02T06:28:35;1.02;;;0.20;;
75718;SDS011;64340;48.534;-3.036;2024-03-02T06:31:01;0.57;;;0.22;;
75718;SDS011;64340;48.534;-3.036;2024-03-02T06:33:27;2.45;;;0.40;;
75718;SDS011;64340;48.534;-3.036;2024-03-02T06:35:53;1.33;;;0.20;;
75718;SDS011;64340;48.534;-3.036;2024-03-02T06:38:19;1.15;;;0.40;;
75718;SDS011;64340;48.534;-3.036;2024-03-02T06:40:45;2.08;;;0.30;;
75718;SDS011;64340;48.534;-3.036;2024-03-02T06:43:11;0.90;;;0.30;;
75718;SDS011;64340;48.534;-3.036;2024-03-02T06:45:36;1.15;;;0.30;;
75718;SDS011;64340;48.534;-3.036;2024-03-02T06:48:02;1.65;;;0.22;;
75718;SDS011;64340;48.534;-3.036;2024-03-02T06:50:28;0.50;;;0.20;;
75718;SDS011;64340;48.534;-3.036;2024-03-02T06:52:54;0.47;;;0.20;;
75718;SDS011;64340;48.534;-3.036;2024-03-02T06:55:21;0.75;;;0.30;;
75718;SDS011;64340;48.534;-3.036;2024-03-02T06:57:47;0.65;;;0.28;;
75718;SDS011;64340;48.534;-3.036;2024-03-02T07:00:13;1.38;;;0.30;;
75718;SDS011;64340;48.534;-3.036;2024-03-02T07:02:39;1.40;;;0.28;;
75718;SDS011;64340;48.534;-3.036;2024-03-02T07:05:07;2.50;;;0.35;;
75718;SDS011;64340;48.534;-3.036;2024-03-02T07:07:33;0.70;;;0.20;;
75718;SDS011;64340;48.534;-3.036;2024-03-02T07:10:00;2.08;;;0.50;;
75718;SDS011;64340;48.534;-3.036;2024-03-02T07:12:26;0.90;;;0.30;;
75718;SDS011;64340;48.534;-3.036;2024-03-02T07:14:52;1.05;;;0.30;;
75718;SDS011;64340;48.534;-3.036;2024-03-02T07:17:30;1.25;;;0.30;;
75718;SDS011;64340;48.534;-3.036;2024-03-02T07:19:56;1.15;;;0.38;;
75718;SDS011;64340;48.534;-3.036;2024-03-02T07:22:23;0.63;;;0.30;;
75718;SDS011;64340;48.534;-3.036;2024-03-02T07:24:49;0.70;;;0.30;;
75718;SDS011;64340;48.534;-3.036;2024-03-02T07:27:15;0.45;;;0.28;;
75718;SDS011;64340;48.534;-3.036;2024-03-02T07:29:42;0.73;;;0.20;;
75718;SDS011;64340;48.534;-3.036;2024-03-02T07:32:09;1.75;;;0.38;;
75718;SDS011;64340;48.534;-3.036;2024-03-02T07:34:35;1.05;;;0.30;;
75718;SDS011;64340;48.534;-3.036;2024-03-02T07:37:02;1.63;;;0.30;;
75718;SDS011;64340;48.534;-3.036;2024-03-02T07:39:28;1.92;;;0.60;;
75718;SDS011;64340;48.534;-3.036;2024-03-02T07:41:55;2.10;;;0.30;;
75718;SDS011;64340;48.534;-3.036;2024-03-02T07:44:20;0.88;;;0.20;;
75718;SDS011;64340;48.534;-3.036;2024-03-02T07:46:46;1.58;;;0.30;;
75718;SDS011;64340;48.534;-3.036;2024-03-02T07:49:16;1.83;;;0.38;;
75718;SDS011;64340;48.534;-3.036;2024-03-02T07:51:42;2.85;;;0.40;;
75718;SDS011;64340;48.534;-3.036;2024-03-02T07:54:08;1.30;;;0.40;;
75718;SDS011;64340;48.534;-3.036;2024-03-02T07:56:34;1.75;;;0.43;;
75718;SDS011;64340;48.534;-3.036;2024-03-02T07:59:03;1.75;;;0.40;;
75718;SDS011;64340;48.534;-3.036;2024-03-02T08:01:30;0.55;;;0.20;;
75718;SDS011;64340;48.534;-3.036;2024-03-02T08:03:57;0.95;;;0.30;;
75718;SDS011;64340;48.534;-3.036;2024-03-02T08:06:27;2.15;;;0.52;;
75718;SDS011;64340;48.534;-3.036;2024-03-02T08:08:53;2.35;;;0.40;;
75718;SDS011;64340;48.534;-3.036;2024-03-02T08:11:20;1.67;;;0.30;;
75718;SDS011;64340;48.534;-3.036;2024-03-02T08:13:46;1.38;;;0.57;;
75718;SDS011;64340;48.534;-3.036;2024-03-02T08:16:12;0.73;;;0.30;;
75718;SDS011;64340;48.534;-3.036;2024-03-02T08:18:38;3.05;;;0.40;;
75718;SDS011;64340;48.534;-3.036;2024-03-02T08:21:04;1.45;;;0.30;;
75718;SDS011;64340;48.534;-3.036;2024-03-02T08:23:30;1.02;;;0.30;;
75718;SDS011;64340;48.534;-3.036;2024-03-02T08:25:57;3.92;;;0.40;;
75718;SDS011;64340;48.534;-3.036;2024-03-02T08:28:23;1.05;;;0.40;;
75718;SDS011;64340;48.534;-3.036;2024-03-02T08:30:48;3.10;;;0.60;;
75718;SDS011;64340;48.534;-3.036;2024-03-02T08:33:14;1.17;;;0.40;;
75718;SDS011;64340;48.534;-3.036;2024-03-02T08:35:40;1.27;;;0.40;;
75718;SDS011;64340;48.534;-3.036;2024-03-02T08:38:05;1.45;;;0.40;;
75718;SDS011;64340;48.534;-3.036;2024-03-02T08:40:31;2.00;;;0.85;;
75718;SDS011;64340;48.534;-3.036;2024-03-02T08:42:57;0.80;;;0.40;;
75718;SDS011;64340;48.534;-3.036;2024-03-02T08:45:23;1.95;;;0.43;;
75718;SDS011;64340;48.534;-3.036;2024-03-02T08:47:48;6.57;;;5.53;;
75718;SDS011;64340;48.534;-3.036;2024-03-02T08:50:14;8.07;;;5.15;;
75718;SDS011;64340;48.534;-3.036;2024-03-02T08:52:40;8.80;;;5.05;;
75718;SDS011;64340;48.534;-3.036;2024-03-02T08:55:06;10.20;;;5.32;;
75718;SDS011;64340;48.534;-3.036;2024-03-02T08:57:32;17.92;;;16.00;;
75718;SDS011;64340;48.534;-3.036;2024-03-02T08:59:58;4.47;;;2.60;;
75718;SDS011;64340;48.534;-3.036;2024-03-02T09:02:25;4.00;;;1.90;;
75718;SDS011;64340;48.534;-3.036;2024-03-02T09:04:51;4.38;;;2.50;;
75718;SDS011;64340;48.534;-3.036;2024-03-02T09:07:17;6.65;;;2.80;;
75718;SDS011;64340;48.534;-3.036;2024-03-02T09:09:43;5.20;;;2.25;;
75718;SDS011;64340;48.534;-3.036;2024-03-02T09:12:08;7.70;;;3.88;;
75718;SDS011;64340;48.534;-3.036;2024-03-02T09:14:35;3.78;;;1.50;;
75718;SDS011;64340;48.534;-3.036;2024-03-02T09:17:02;4.30;;;1.58;;
75718;SDS011;64340;48.534;-3.036;2024-03-02T09:19:28;6.45;;;2.22;;
75718;SDS011;64340;48.534;-3.036;2024-03-02T09:21:54;3.65;;;2.28;;
75718;SDS011;64340;48.534;-3.036;2024-03-02T09:24:21;3.75;;;2.15;;
75718;SDS011;64340;48.534;-3.036;2024-03-02T09:26:47;3.85;;;1.70;;
75718;SDS011;64340;48.534;-3.036;2024-03-02T09:29:13;4.65;;;2.10;;
75718;SDS011;64340;48.534;-3.036;2024-03-02T09:31:39;4.22;;;2.10;;
75718;SDS011;64340;48.534;-3.036;2024-03-02T09:34:08;3.55;;;2.22;;
75718;SDS011;64340;48.534;-3.036;2024-03-02T09:36:34;2.83;;;2.00;;
75718;SDS011;64340;48.534;-3.036;2024-03-02T09:39:00;5.28;;;2.05;;
75718;SDS011;64340;48.534;-3.036;2024-03-02T09:41:26;4.07;;;2.05;;
75718;SDS011;64340;48.534;-3.036;2024-03-02T09:43:52;2.92;;;2.17;;
75718;SDS011;64340;48.534;-3.036;2024-03-02T09:46:19;3.10;;;1.90;;
75718;SDS011;64340;48.534;-3.036;2024-03-02T09:48:45;3.15;;;1.90;;
75718;SDS011;64340;48.534;-3.036;2024-03-02T09:51:11;4.95;;;2.00;;
75718;SDS011;64340;48.534;-3.036;2024-03-02T09:53:37;3.70;;;1.83;;
75718;SDS011;64340;48.534;-3.036;2024-03-02T09:56:03;6.25;;;2.35;;
75718;SDS011;64340;48.534;-3.036;2024-03-02T09:58:29;2.90;;;1.60;;
75718;SDS011;64340;48.534;-3.036;2024-03-02T10:00:55;3.80;;;1.50;;
75718;SDS011;64340;48.534;-3.036;2024-03-02T10:03:25;3.63;;;1.45;;
75718;SDS011;64340;48.534;-3.036;2024-03-02T10:05:54;2.80;;;1.48;;
75718;SDS011;64340;48.534;-3.036;2024-03-02T10:08:19;3.45;;;1.40;;
75718;SDS011;64340;48.534;-3.036;2024-03-02T10:10:45;2.83;;;1.33;;
75718;SDS011;64340;48.534;-3.036;2024-03-02T10:13:12;5.28;;;1.33;;
75718;SDS011;64340;48.534;-3.036;2024-03-02T10:15:39;3.42;;;1.20;;
75718;SDS011;64340;48.534;-3.036;2024-03-02T10:18:12;4.35;;;1.33;;
75718;SDS011;64340;48.534;-3.036;2024-03-02T10:20:39;2.50;;;1.10;;
75718;SDS011;64340;48.534;-3.036;2024-03-02T10:23:15;3.67;;;1.38;;
75718;SDS011;64340;48.534;-3.036;2024-03-02T10:25:43;4.30;;;1.67;;
75718;SDS011;64340;48.534;-3.036;2024-03-02T10:28:10;1.85;;;1.25;;
75718;SDS011;64340;48.534;-3.036;2024-03-02T10:30:36;3.65;;;1.10;;
75718;SDS011;64340;48.534;-3.036;2024-03-02T10:33:02;2.60;;;1.30;;
75718;SDS011;64340;48.534;-3.036;2024-03-02T10:35:28;3.00;;;1.20;;
75718;SDS011;64340;48.534;-3.036;2024-03-02T10:37:58;3.03;;;1.00;;
75718;SDS011;64340;48.534;-3.036;2024-03-02T10:40:26;3.33;;;1.30;;
75718;SDS011;64340;48.534;-3.036;2024-03-02T10:42:52;3.35;;;1.40;;
75718;SDS011;64340;48.534;-3.036;2024-03-02T10:45:18;4.85;;;1.25;;
75718;SDS011;64340;48.534;-3.036;2024-03-02T10:47:47;1.70;;;0.90;;
75718;SDS011;64340;48.534;-3.036;2024-03-02T10:50:14;2.33;;;1.00;;
75718;SDS011;64340;48.534;-3.036;2024-03-02T10:52:40;2.20;;;1.10;;
75718;SDS011;64340;48.534;-3.036;2024-03-02T10:55:06;1.90;;;0.93;;
75718;SDS011;64340;48.534;-3.036;2024-03-02T10:57:55;2.45;;;1.13;;
75718;SDS011;64340;48.534;-3.036;2024-03-02T11:00:23;3.85;;;1.45;;
75718;SDS011;64340;48.534;-3.036;2024-03-02T11:02:58;2.80;;;1.20;;
75718;SDS011;64340;48.534;-3.036;2024-03-02T11:05:39;4.45;;;1.17;;
75718;SDS011;64340;48.534;-3.036;2024-03-02T11:08:13;5.18;;;1.13;;
75718;SDS011;64340;48.534;-3.036;2024-03-02T11:10:50;2.80;;;1.13;;
75718;SDS011;64340;48.534;-3.036;2024-03-02T11:13:21;2.67;;;0.95;;
75718;SDS011;64340;48.534;-3.036;2024-03-02T11:15:53;2.92;;;0.90;;
75718;SDS011;64340;48.534;-3.036;2024-03-02T11:18:23;2.78;;;0.80;;
75718;SDS011;64340;48.534;-3.036;2024-03-02T11:20:50;1.83;;;0.70;;
75718;SDS011;64340;48.534;-3.036;2024-03-02T11:23:16;2.92;;;0.80;;
75718;SDS011;64340;48.534;-3.036;2024-03-02T11:25:42;3.25;;;1.08;;
75718;SDS011;64340;48.534;-3.036;2024-03-02T11:28:08;3.95;;;0.82;;
75718;SDS011;64340;48.534;-3.036;2024-03-02T11:33:03;2.50;;;0.77;;
75718;SDS011;64340;48.534;-3.036;2024-03-02T11:35:35;4.22;;;0.93;;
75718;SDS011;64340;48.534;-3.036;2024-03-02T11:38:09;3.58;;;0.80;;
75718;SDS011;64340;48.534;-3.036;2024-03-02T11:40:35;6.32;;;1.63;;
75718;SDS011;64340;48.534;-3.036;2024-03-02T11:43:01;32.60;;;9.88;;
75718;SDS011;64340;48.534;-3.036;2024-03-02T11:45:27;67.43;;;18.40;;
75718;SDS011;64340;48.534;-3.036;2024-03-02T11:47:54;85.95;;;23.20;;
75718;SDS011;64340;48.534;-3.036;2024-03-02T11:50:30;71.72;;;21.23;;
75718;SDS011;64340;48.534;-3.036;2024-03-02T11:53:02;69.05;;;19.70;;
75718;SDS011;64340;48.534;-3.036;2024-03-02T11:55:35;67.35;;;17.08;;
75718;SDS011;64340;48.534;-3.036;2024-03-02T11:58:04;59.33;;;16.58;;
75718;SDS011;64340;48.534;-3.036;2024-03-02T12:00:30;51.97;;;13.90;;
75718;SDS011;64340;48.534;-3.036;2024-03-02T12:03:03;51.25;;;14.40;;
75718;SDS011;64340;48.534;-3.036;2024-03-02T12:05:34;46.55;;;13.48;;
75718;SDS011;64340;48.534;-3.036;2024-03-02T12:08:04;40.67;;;12.55;;
75718;SDS011;64340;48.534;-3.036;2024-03-02T12:10:34;41.03;;;11.88;;
75718;SDS011;64340;48.534;-3.036;2024-03-02T12:13:04;36.33;;;11.88;;
75718;SDS011;64340;48.534;-3.036;2024-03-02T12:15:38;34.05;;;9.90;;
75718;SDS011;64340;48.534;-3.036;2024-03-02T12:18:05;35.15;;;9.80;;
75718;SDS011;64340;48.534;-3.036;2024-03-02T12:20:32;27.35;;;9.32;;
75718;SDS011;64340;48.534;-3.036;2024-03-02T12:22:59;26.02;;;8.60;;
75718;SDS011;64340;48.534;-3.036;2024-03-02T12:25:29;29.67;;;9.05;;
75718;SDS011;64340;48.534;-3.036;2024-03-02T12:27:57;26.55;;;7.93;;
75718;SDS011;64340;48.534;-3.036;2024-03-02T12:30:26;22.45;;;6.97;;
75718;SDS011;64340;48.534;-3.036;2024-03-02T12:32:54;17.95;;;6.22;;
75718;SDS011;64340;48.534;-3.036;2024-03-02T12:35:20;20.92;;;6.63;;
75718;SDS011;64340;48.534;-3.036;2024-03-02T12:37:49;18.70;;;5.65;;
75718;SDS011;64340;48.534;-3.036;2024-03-02T12:40:19;19.33;;;6.03;;
75718;SDS011;64340;48.534;-3.036;2024-03-02T12:42:45;13.27;;;4.90;;
75718;SDS011;64340;48.534;-3.036;2024-03-02T12:45:12;16.98;;;4.82;;
75718;SDS011;64340;48.534;-3.036;2024-03-02T12:47:41;15.80;;;4.93;;
75718;SDS011;64340;48.534;-3.036;2024-03-02T12:50:08;17.88;;;5.00;;
75718;SDS011;64340;48.534;-3.036;2024-03-02T12:52:34;16.25;;;4.10;;
75718;SDS011;64340;48.534;-3.036;2024-03-02T12:55:01;16.80;;;4.40;;
75718;SDS011;64340;48.534;-3.036;2024-03-02T12:57:29;10.55;;;3.63;;
75718;SDS011;64340;48.534;-3.036;2024-03-02T13:00:03;11.02;;;3.50;;
75718;SDS011;64340;48.534;-3.036;2024-03-02T13:02:34;11.43;;;4.03;;
75718;SDS011;64340;48.534;-3.036;2024-03-02T13:05:00;9.55;;;3.15;;
75718;SDS011;64340;48.534;-3.036;2024-03-02T13:07:27;10.80;;;3.13;;
75718;SDS011;64340;48.534;-3.036;2024-03-02T13:09:54;11.25;;;3.03;;
75718;SDS011;64340;48.534;-3.036;2024-03-02T13:12:21;11.15;;;3.10;;
75718;SDS011;64340;48.534;-3.036;2024-03-02T13:14:48;9.10;;;2.80;;
75718;SDS011;64340;48.534;-3.036;2024-03-02T13:17:18;8.23;;;2.55;;
75718;SDS011;64340;48.534;-3.036;2024-03-02T13:19:51;10.73;;;3.08;;
75718;SDS011;64340;48.534;-3.036;2024-03-02T13:22:24;8.57;;;2.47;;
75718;SDS011;64340;48.534;-3.036;2024-03-02T13:24:50;9.80;;;2.85;;
75718;SDS011;64340;48.534;-3.036;2024-03-02T13:27:17;10.10;;;2.45;;
75718;SDS011;64340;48.534;-3.036;2024-03-02T13:29:45;8.55;;;2.40;;
75718;SDS011;64340;48.534;-3.036;2024-03-02T13:32:14;8.57;;;2.30;;
75718;SDS011;64340;48.534;-3.036;2024-03-02T13:34:41;5.65;;;2.10;;
75718;SDS011;64340;48.534;-3.036;2024-03-02T13:37:07;3.60;;;1.80;;
75718;SDS011;64340;48.534;-3.036;2024-03-02T13:39:33;5.38;;;2.03;;
75718;SDS011;64340;48.534;-3.036;2024-03-02T13:42:04;6.47;;;2.35;;
75718;SDS011;64340;48.534;-3.036;2024-03-02T13:44:34;7.38;;;1.98;;
75718;SDS011;64340;48.534;-3.036;2024-03-02T13:47:00;5.45;;;1.65;;
75718;SDS011;64340;48.534;-3.036;2024-03-02T13:49:26;7.65;;;2.08;;
75718;SDS011;64340;48.534;-3.036;2024-03-02T13:52:05;5.70;;;1.95;;
75718;SDS011;64340;48.534;-3.036;2024-03-02T13:54:45;4.18;;;1.73;;
75718;SDS011;64340;48.534;-3.036;2024-03-02T13:57:13;4.15;;;1.50;;
75718;SDS011;64340;48.534;-3.036;2024-03-02T13:59:39;4.43;;;1.58;;
75718;SDS011;64340;48.534;-3.036;2024-03-02T14:02:06;3.40;;;1.55;;
75718;SDS011;64340;48.534;-3.036;2024-03-02T14:04:33;5.82;;;1.48;;
75718;SDS011;64340;48.534;-3.036;2024-03-02T14:06:59;5.25;;;1.67;;
75718;SDS011;64340;48.534;-3.036;2024-03-02T14:09:26;6.40;;;1.75;;
75718;SDS011;64340;48.534;-3.036;2024-03-02T14:11:52;3.05;;;1.63;;
75718;SDS011;64340;48.534;-3.036;2024-03-02T14:14:21;4.25;;;1.42;;
75718;SDS011;64340;48.534;-3.036;2024-03-02T14:16:48;4.75;;;1.55;;
75718;SDS011;64340;48.534;-3.036;2024-03-02T14:19:13;3.88;;;1.25;;
75718;SDS011;64340;48.534;-3.036;2024-03-02T14:21:39;4.72;;;1.38;;
75718;SDS011;64340;48.534;-3.036;2024-03-02T14:24:05;2.85;;;0.88;;
75718;SDS011;64340;48.534;-3.036;2024-03-02T14:26:34;4.53;;;1.05;;
75718;SDS011;64340;48.534;-3.036;2024-03-02T14:29:01;3.15;;;1.05;;
75718;SDS011;64340;48.534;-3.036;2024-03-02T14:31:28;2.17;;;0.50;;
75718;SDS011;64340;48.534;-3.036;2024-03-02T14:33:54;2.65;;;0.80;;
75718;SDS011;64340;48.534;-3.036;2024-03-02T14:36:20;3.28;;;0.90;;
75718;SDS011;64340;48.534;-3.036;2024-03-02T14:38:46;2.58;;;0.82;;